Time;durP1;ratioP1;P1;durP2;ratioP2;P2;SDS_P1;SDS_P2;PMS_P1;PMS_P2;Temp;Humidity;BMP_temperature;BMP_pressure;BME280_temperature;BME280_humidity;BME280_pressure;Samples;Min_cycle;Max_cycle;Signal;HPM_P1;HPM_P2
2023/04/10 00:00:17;;;;;;;29.60;19.20;;;;;;;;;;5071463;28;20111;-73
2023/04/10 00:02:43;;;;;;;;;;;;;;;;;;5072236;28;20076;-73
2023/04/10 00:05:11;;;;;;;28.73;19.95;;;;;;;;;;5089709;28;19916;-73
2023/04/10 00:07:37;;;;;;;29.63;20.13;;;;;;;;;;5070730;28;20128;-73
2023/04/10 00:10:03;;;;;;;31.63;20.52;;;;;;;;;;5071874;28;20044;-74
2023/04/10 00:12:29;;;;;;;25.33;17.50;;;;;;;;;;5072445;28;20044;-73
2023/04/10 00:14:55;;;;;;;29.88;18.15;;;;;;;;;;5054443;28;20040;-73
2023/04/10 00:17:21;;;;;;;26.67;18.88;;;;;;;;;;5054941;28;20123;-73
2023/04/10 00:19:47;;;;;;;30.30;20.08;;;;;;;;;;5071299;28;20102;-73
2023/04/10 00:22:13;;;;;;;25.98;17.50;;;;;;;;;;5071213;28;20033;-73
2023/04/10 00:24:39;;;;;;;29.63;19.63;;;;;;;;;;5071526;28;20471;-74
2023/04/10 00:27:06;;;;;;;29.88;19.50;;;;;;;;;;5071285;28;20073;-74
2023/04/10 00:29:32;;;;;;;33.05;20.48;;;;;;;;;;5034646;28;20052;-73
2023/04/10 00:31:58;;;;;;;28.77;18.77;;;;;;;;;;5048851;28;20048;-73
2023/04/10 00:34:24;;;;;;;30.27;20.15;;;;;;;;;;5070150;28;20048;-74
2023/04/10 00:36:50;;;;;;;;;;;;;;;;;;5071372;28;20478;-74
2023/04/10 00:39:16;;;;;;;28.35;18.90;;;;;;;;;;5071038;28;20004;-73
2023/04/10 00:41:42;;;;;;;34.83;21.70;;;;;;;;;;5054389;28;20047;-73
2023/04/10 00:44:08;;;;;;;31.13;20.50;;;;;;;;;;5067867;28;20455;-73
2023/04/10 00:46:36;;;;;;;29.73;19.25;;;;;;;;;;5069714;28;20044;-73
2023/04/10 00:49:03;;;;;;;28.73;19.13;;;;;;;;;;5070310;28;20487;-73
2023/04/10 00:51:30;;;;;;;34.63;23.10;;;;;;;;;;5071328;28;20441;-73
2023/04/10 00:53:56;;;;;;;35.17;23.15;;;;;;;;;;5071751;28;20515;-73
2023/04/10 00:56:23;;;;;;;34.42;22.70;;;;;;;;;;5070526;28;20087;-74
2023/04/10 00:58:49;;;;;;;37.85;24.17;;;;;;;;;;5055179;28;20133;-74
2023/04/10 01:01:15;;;;;;;34.60;23.95;;;;;;;;;;5053603;28;20044;-74
2023/04/10 01:03:42;;;;;;;44.67;28.42;;;;;;;;;;5071879;28;20044;-74
2023/04/10 01:06:12;;;;;;;40.53;25.70;;;;;;;;;;5052979;28;20480;-73
2023/04/10 01:08:47;;;;;;;39.70;26.23;;;;;;;;;;5069607;28;20048;-73
2023/04/10 01:11:24;;;;;;;42.83;26.35;;;;;;;;;;5061328;28;20139;-73
2023/04/10 01:13:54;;;;;;;44.15;28.15;;;;;;;;;;5054825;28;20091;-74
2023/04/10 01:16:26;;;;;;;42.90;27.90;;;;;;;;;;5103788;28;20044;-74
2023/04/10 01:19:19;;;;;;;43.25;26.73;;;;;;;;;;5069765;28;20044;-73
2023/04/10 01:21:45;;;;;;;43.10;26.95;;;;;;;;;;5053192;28;20083;-74
2023/04/10 01:24:11;;;;;;;;;;;;;;;;;;5070731;28;20044;-74
2023/04/10 01:26:43;;;;;;;45.30;27.60;;;;;;;;;;5085627;28;19965;-74
2023/04/10 01:29:17;;;;;;;45.25;28.65;;;;;;;;;;5070021;28;20055;-73
2023/04/10 01:31:55;;;;;;;48.95;30.70;;;;;;;;;;5069396;28;20045;-73
2023/04/10 01:34:23;;;;;;;49.00;28.80;;;;;;;;;;5069448;28;20037;-73
2023/04/10 01:36:51;;;;;;;50.40;30.67;;;;;;;;;;5068424;28;20052;-73
2023/04/10 01:39:21;;;;;;;48.92;30.80;;;;;;;;;;5068253;28;20089;-73
2023/04/10 01:41:51;;;;;;;43.83;26.98;;;;;;;;;;5104551;28;20336;-73
2023/04/10 01:44:20;;;;;;;46.05;28.08;;;;;;;;;;5068966;28;20093;-74
2023/04/10 01:46:46;;;;;;;49.08;30.05;;;;;;;;;;5068618;28;20040;-74
2023/04/10 01:49:12;;;;;;;53.33;32.53;;;;;;;;;;5069922;28;20199;-73
2023/04/10 01:51:39;;;;;;;55.00;33.72;;;;;;;;;;5070052;28;20047;-73
2023/04/10 01:54:05;;;;;;;58.30;35.47;;;;;;;;;;5071091;28;20424;-73
2023/04/10 01:56:32;;;;;;;57.97;34.70;;;;;;;;;;5068361;28;20079;-74
2023/04/10 01:58:58;;;;;;;56.70;33.22;;;;;;;;;;5071400;28;20143;-73
2023/04/10 02:01:25;;;;;;;55.30;34.67;;;;;;;;;;5069537;28;20464;-73
2023/04/10 02:03:52;;;;;;;55.42;33.75;;;;;;;;;;5069934;28;20044;-73
2023/04/10 02:06:31;;;;;;;52.72;33.60;;;;;;;;;;5067754;28;20051;-73
2023/04/10 02:09:02;;;;;;;53.78;35.17;;;;;;;;;;5069742;28;20141;-73
2023/04/10 02:11:33;;;;;;;54.33;34.50;;;;;;;;;;5070878;28;20124;-73
2023/04/10 02:14:01;;;;;;;55.45;33.45;;;;;;;;;;5055713;28;20033;-73
2023/04/10 02:16:28;;;;;;;43.05;29.25;;;;;;;;;;5051242;28;20044;-74
2023/04/10 02:18:55;;;;;;;50.15;29.92;;;;;;;;;;5052707;28;20120;-74
2023/04/10 02:21:21;;;;;;;52.20;33.25;;;;;;;;;;5035174;28;20051;-73
2023/04/10 02:23:47;;;;;;;50.20;32.53;;;;;;;;;;5068419;28;20032;-73
2023/04/10 02:26:13;;;;;;;53.20;35.28;;;;;;;;;;5069196;28;20105;-73
2023/04/10 02:28:39;;;;;;;52.47;32.72;;;;;;;;;;5068668;28;20063;-73
2023/04/10 02:31:05;;;;;;;46.67;30.70;;;;;;;;;;5069275;28;20118;-73
2023/04/10 02:33:31;;;;;;;;;;;;;;;;;;5070622;28;20101;-73
2023/04/10 02:35:57;;;;;;;47.47;31.10;;;;;;;;;;5068366;28;19928;-73
2023/04/10 02:38:24;;;;;;;51.95;34.10;;;;;;;;;;5052617;28;20131;-73
2023/04/10 02:40:50;;;;;;;50.33;31.23;;;;;;;;;;5052333;28;20052;-73
2023/04/10 02:43:16;;;;;;;53.60;35.03;;;;;;;;;;5051575;28;20530;-74
2023/04/10 02:45:42;;;;;;;53.50;34.00;;;;;;;;;;5068043;28;20430;-73
2023/04/10 02:48:09;;;;;;;50.78;32.70;;;;;;;;;;5069664;28;20448;-73
2023/04/10 02:50:36;;;;;;;47.63;30.85;;;;;;;;;;5069167;28;20076;-73
2023/04/10 02:53:02;;;;;;;45.10;30.27;;;;;;;;;;5069541;28;20043;-72
2023/04/10 02:55:28;;;;;;;48.67;33.00;;;;;;;;;;5068489;28;20055;-74
2023/04/10 02:57:54;;;;;;;47.72;31.55;;;;;;;;;;5067093;28;20136;-74
2023/04/10 03:00:20;;;;;;;;;;;;;;;;;;5069201;28;20063;-73
2023/04/10 03:02:47;;;;;;;51.10;32.13;;;;;;;;;;5068300;28;19986;-73
2023/04/10 03:05:13;;;;;;;47.42;31.75;;;;;;;;;;5068147;28;20036;-73
2023/04/10 03:07:39;;;;;;;48.47;31.50;;;;;;;;;;5067970;28;20072;-73
2023/04/10 03:10:05;;;;;;;43.05;27.60;;;;;;;;;;5067371;28;20515;-73
2023/04/10 03:12:32;;;;;;;43.60;28.10;;;;;;;;;;5068763;28;20045;-73
2023/04/10 03:14:58;;;;;;;41.80;28.55;;;;;;;;;;5051786;28;20041;-73
2023/04/10 03:17:24;;;;;;;39.03;26.33;;;;;;;;;;5066639;28;20132;-73
2023/04/10 03:19:50;;;;;;;36.92;25.02;;;;;;;;;;5034792;28;20429;-73
2023/04/10 03:22:16;;;;;;;36.85;25.55;;;;;;;;;;5067714;28;20032;-73
2023/04/10 03:24:42;;;;;;;39.58;26.58;;;;;;;;;;5035975;28;20051;-73
2023/04/10 03:27:08;;;;;;;38.95;25.75;;;;;;;;;;5101166;28;20068;-72
2023/04/10 03:29:34;;;;;;;36.17;25.05;;;;;;;;;;5052448;28;20098;-73
2023/04/10 03:32:00;;;;;;;42.80;27.15;;;;;;;;;;5066183;28;20524;-72
2023/04/10 03:34:26;;;;;;;36.47;25.00;;;;;;;;;;5065152;28;20088;-74
2023/04/10 03:36:53;;;;;;;38.22;25.95;;;;;;;;;;5068458;28;20114;-73
2023/04/10 03:39:19;;;;;;;41.90;28.95;;;;;;;;;;5067546;28;20048;-73
2023/04/10 03:41:45;;;;;;;41.60;28.95;;;;;;;;;;5069261;28;20488;-73
2023/04/10 03:44:11;;;;;;;42.97;28.27;;;;;;;;;;5068233;28;20040;-74
2023/04/10 03:46:37;;;;;;;39.38;27.38;;;;;;;;;;5067097;28;20094;-73
2023/04/10 03:49:03;;;;;;;34.65;24.58;;;;;;;;;;5069598;28;20101;-73
2023/04/10 03:51:30;;;;;;;36.45;25.40;;;;;;;;;;5067872;28;20041;-74
2023/04/10 03:53:56;;;;;;;34.63;23.85;;;;;;;;;;5101832;28;20052;-73
2023/04/10 03:56:22;;;;;;;32.17;22.67;;;;;;;;;;5067178;28;20108;-74
2023/04/10 03:58:48;;;;;;;36.60;24.35;;;;;;;;;;5067427;28;20040;-74
2023/04/10 04:01:14;;;;;;;38.13;26.30;;;;;;;;;;5067953;28;20053;-73
2023/04/10 04:03:40;;;;;;;37.78;26.98;;;;;;;;;;5068305;28;20549;-73
2023/04/10 04:06:07;;;;;;;41.55;28.17;;;;;;;;;;5068101;28;20067;-73
2023/04/10 04:08:35;;;;;;;38.45;26.45;;;;;;;;;;5051757;28;20040;-74
2023/04/10 04:11:01;;;;;;;40.90;26.60;;;;;;;;;;5067811;28;20109;-74
2023/04/10 04:13:27;;;;;;;42.17;29.17;;;;;;;;;;5101949;28;20049;-74
2023/04/10 04:15:53;;;;;;;38.05;26.55;;;;;;;;;;5101370;28;20116;-74
2023/04/10 04:18:19;;;;;;;;;;;;;;;;;;5068727;28;20045;-73
2023/04/10 04:20:46;;;;;;;44.63;29.65;;;;;;;;;;5066900;28;20025;-73
2023/04/10 04:23:12;;;;;;;43.50;29.23;;;;;;;;;;5069079;28;20123;-74
2023/04/10 04:25:38;;;;;;;43.50;30.13;;;;;;;;;;5067111;28;20148;-74
2023/04/10 04:28:04;;;;;;;45.25;30.80;;;;;;;;;;5067620;28;20076;-73
2023/04/10 04:30:30;;;;;;;;;;;;;;;;;;5050120;28;20115;-73
2023/04/10 04:32:56;;;;;;;47.42;30.85;;;;;;;;;;5066130;28;19916;-74
2023/04/10 04:35:22;;;;;;;43.40;30.92;;;;;;;;;;5064140;28;20041;-75
2023/04/10 04:37:48;;;;;;;47.70;32.38;;;;;;;;;;5090253;28;20067;-74
2023/04/10 04:40:14;;;;;;;44.25;29.48;;;;;;;;;;5066493;28;20127;-74
2023/04/10 04:42:40;;;;;;;44.60;31.08;;;;;;;;;;5065845;28;20044;-74
2023/04/10 04:45:07;;;;;;;41.88;30.05;;;;;;;;;;5070834;28;20046;-74
2023/04/10 04:47:33;;;;;;;;;;;;;;;;;;5062896;28;20470;-73
2023/04/10 04:49:59;;;;;;;43.42;31.15;;;;;;;;;;5066140;28;19928;-74
2023/04/10 04:52:26;;;;;;;41.72;29.52;;;;;;;;;;5054945;28;20044;-74
2023/04/10 04:54:52;;;;;;;47.35;31.90;;;;;;;;;;5054794;28;20051;-74
2023/04/10 04:57:18;;;;;;;46.00;30.38;;;;;;;;;;5101202;28;20047;-74
2023/04/10 04:59:44;;;;;;;44.60;30.10;;;;;;;;;;5054080;28;20470;-74
2023/04/10 05:02:10;;;;;;;48.03;31.05;;;;;;;;;;5072975;28;20729;-74
2023/04/10 05:04:36;;;;;;;47.58;32.45;;;;;;;;;;5076350;28;20373;-75
2023/04/10 05:07:03;;;;;;;44.80;30.98;;;;;;;;;;5068770;28;20133;-74
2023/04/10 05:09:31;;;;;;;39.83;27.88;;;;;;;;;;5053694;28;20151;-74
2023/04/10 05:12:01;;;;;;;43.40;31.05;;;;;;;;;;5055274;28;20072;-74
2023/04/10 05:14:28;;;;;;;43.55;30.25;;;;;;;;;;5068756;28;20063;-74
2023/04/10 05:16:54;;;;;;;43.97;31.38;;;;;;;;;;5103562;28;20047;-74
2023/04/10 05:19:20;;;;;;;43.25;30.27;;;;;;;;;;5069107;28;20041;-73
2023/04/10 05:21:46;;;;;;;41.15;28.13;;;;;;;;;;5069472;28;20059;-73
2023/04/10 05:24:12;;;;;;;41.67;28.55;;;;;;;;;;5069573;28;20129;-73
2023/04/10 05:26:39;;;;;;;41.95;29.30;;;;;;;;;;5051634;28;20426;-73
2023/04/10 05:29:05;;;;;;;41.80;28.20;;;;;;;;;;5068544;28;20048;-73
2023/04/10 05:31:31;;;;;;;41.40;29.67;;;;;;;;;;5087253;28;20075;-73
2023/04/10 05:33:57;;;;;;;41.67;28.83;;;;;;;;;;5102397;28;20046;-72
2023/04/10 05:36:23;;;;;;;38.97;28.05;;;;;;;;;;5070100;28;20057;-73
2023/04/10 05:38:50;;;;;;;41.58;27.42;;;;;;;;;;5053193;28;20515;-73
2023/04/10 05:41:16;;;;;;;36.35;25.38;;;;;;;;;;5087703;28;20476;-73
2023/04/10 05:43:42;;;;;;;39.00;27.15;;;;;;;;;;5068826;28;20037;-73
2023/04/10 05:46:08;;;;;;;43.83;30.20;;;;;;;;;;5051572;28;20449;-73
2023/04/10 05:48:34;;;;;;;40.78;28.08;;;;;;;;;;5071109;28;20547;-73
2023/04/10 05:51:00;;;;;;;38.72;27.13;;;;;;;;;;5069168;28;20040;-73
2023/04/10 05:53:30;;;;;;;45.17;30.70;;;;;;;;;;5054286;28;20134;-73
2023/04/10 05:55:56;;;;;;;40.10;29.40;;;;;;;;;;5068092;28;20043;-73
2023/04/10 05:58:22;;;;;;;43.08;29.85;;;;;;;;;;5070805;28;20112;-73
2023/04/10 06:00:48;;;;;;;41.63;28.52;;;;;;;;;;5102089;28;20032;-73
2023/04/10 06:03:14;;;;;;;37.13;26.13;;;;;;;;;;5070658;28;20044;-72
2023/04/10 06:05:40;;;;;;;38.30;26.90;;;;;;;;;;5069798;28;20036;-73
2023/04/10 06:08:06;;;;;;;35.08;25.23;;;;;;;;;;5068861;28;20051;-73
2023/04/10 06:10:32;;;;;;;35.60;26.45;;;;;;;;;;5066540;28;20479;-73
2023/04/10 06:12:58;;;;;;;39.50;27.58;;;;;;;;;;5069203;28;20166;-73
2023/04/10 06:15:24;;;;;;;35.47;26.27;;;;;;;;;;5069207;28;20080;-73
2023/04/10 06:17:50;;;;;;;37.85;26.25;;;;;;;;;;5069750;28;20045;-73
2023/04/10 06:20:17;;;;;;;38.00;26.15;;;;;;;;;;5050872;28;20078;-73
2023/04/10 06:22:43;;;;;;;35.13;25.58;;;;;;;;;;5068959;28;20036;-73
2023/04/10 06:25:09;;;;;;;34.50;25.08;;;;;;;;;;5069114;28;20137;-73
2023/04/10 06:27:35;;;;;;;;;;;;;;;;;;5069444;28;20555;-73
2023/04/10 06:30:01;;;;;;;33.22;23.52;;;;;;;;;;5068124;28;20042;-73
2023/04/10 06:32:27;;;;;;;34.33;24.33;;;;;;;;;;5052684;28;20048;-73
2023/04/10 06:34:53;;;;;;;33.45;22.75;;;;;;;;;;5069940;28;20144;-73
2023/04/10 06:37:19;;;;;;;33.15;23.20;;;;;;;;;;5069539;28;20090;-73
2023/04/10 06:39:45;;;;;;;29.80;22.33;;;;;;;;;;5052171;28;20123;-73
2023/04/10 06:42:12;;;;;;;33.30;23.90;;;;;;;;;;5069258;28;20147;-73
2023/04/10 06:44:38;;;;;;;32.00;23.83;;;;;;;;;;5068079;28;20066;-73
2023/04/10 06:47:05;;;;;;;34.28;24.23;;;;;;;;;;5068943;28;20044;-73
2023/04/10 06:49:31;;;;;;;34.55;24.77;;;;;;;;;;5069929;28;20054;-73
2023/04/10 06:51:57;;;;;;;35.40;25.65;;;;;;;;;;5069526;28;20350;-73
2023/04/10 06:54:23;;;;;;;34.63;24.55;;;;;;;;;;5066351;28;20048;-72
2023/04/10 06:56:49;;;;;;;36.53;25.30;;;;;;;;;;5068787;28;20037;-72
2023/04/10 06:59:15;;;;;;;;;;;;;;;;;;5068525;28;20464;-72
2023/04/10 07:01:41;;;;;;;33.67;23.23;;;;;;;;;;5082006;28;19920;-73
2023/04/10 07:04:08;;;;;;;33.25;21.67;;;;;;;;;;5075698;28;20490;-72
2023/04/10 07:06:34;;;;;;;30.60;21.30;;;;;;;;;;5067118;28;20059;-72
2023/04/10 07:09:00;;;;;;;31.70;23.10;;;;;;;;;;5051783;28;20518;-73
2023/04/10 07:11:26;;;;;;;29.58;20.77;;;;;;;;;;5052625;28;20396;-73
2023/04/10 07:13:57;;;;;;;28.38;20.65;;;;;;;;;;5068026;28;20040;-73
2023/04/10 07:16:23;;;;;;;29.77;21.13;;;;;;;;;;5068800;28;20055;-73
2023/04/10 07:18:49;;;;;;;29.38;20.70;;;;;;;;;;5069130;28;20052;-73
2023/04/10 07:21:15;;;;;;;27.48;20.48;;;;;;;;;;5068597;28;20098;-74
2023/04/10 07:23:41;;;;;;;27.23;19.85;;;;;;;;;;5058401;28;20086;-73
2023/04/10 07:26:08;;;;;;;25.80;19.55;;;;;;;;;;5077088;28;20045;-73
2023/04/10 07:28:34;;;;;;;25.15;18.65;;;;;;;;;;5068527;28;20070;-73
2023/04/10 07:31:00;;;;;;;25.20;18.45;;;;;;;;;;5078603;28;20376;-73
2023/04/10 07:33:26;;;;;;;25.33;18.48;;;;;;;;;;5072034;28;20040;-73
2023/04/10 07:35:52;;;;;;;25.30;17.95;;;;;;;;;;5068693;28;20572;-72
2023/04/10 07:38:18;;;;;;;26.83;19.38;;;;;;;;;;5069229;28;20044;-72
2023/04/10 07:40:44;;;;;;;28.70;21.38;;;;;;;;;;5069185;28;20507;-72
2023/04/10 07:43:10;;;;;;;27.83;20.52;;;;;;;;;;5069019;28;20443;-72
2023/04/10 07:45:36;;;;;;;30.25;21.50;;;;;;;;;;5064708;28;20040;-72
2023/04/10 07:48:05;;;;;;;26.20;19.65;;;;;;;;;;5064114;28;20070;-69
2023/04/10 07:50:31;;;;;;;27.50;20.27;;;;;;;;;;5097708;28;20345;-70
2023/04/10 07:52:58;;;;;;;25.00;19.50;;;;;;;;;;5068655;28;20037;-71
2023/04/10 07:55:24;;;;;;;27.23;20.77;;;;;;;;;;5051775;28;20045;-71
2023/04/10 07:57:51;;;;;;;28.27;20.67;;;;;;;;;;5061632;28;20041;-72
2023/04/10 08:00:17;;;;;;;26.65;19.83;;;;;;;;;;5100798;28;20126;-72
2023/04/10 08:02:43;;;;;;;22.05;17.65;;;;;;;;;;5050412;28;20044;-72
2023/04/10 08:05:09;;;;;;;24.10;18.58;;;;;;;;;;5064540;28;20037;-72
2023/04/10 08:07:37;;;;;;;26.40;19.77;;;;;;;;;;5048483;28;20044;-71
2023/04/10 08:10:03;;;;;;;24.98;18.58;;;;;;;;;;5065119;28;20056;-73
2023/04/10 08:12:30;;;;;;;;;;;;;;;;;;5051250;28;20451;-73
2023/04/10 08:14:57;;;;;;;24.55;18.92;;;;;;;;;;5102969;28;19917;-73
2023/04/10 08:17:23;;;;;;;23.95;18.30;;;;;;;;;;5049825;28;20037;-71
2023/04/10 08:19:49;;;;;;;22.77;17.58;;;;;;;;;;5071028;28;20052;-71
2023/04/10 08:22:15;;;;;;;24.73;18.27;;;;;;;;;;5079853;28;20040;-71
2023/04/10 08:24:41;;;;;;;24.02;18.30;;;;;;;;;;5072231;28;20053;-71
2023/04/10 08:27:07;;;;;;;26.20;18.90;;;;;;;;;;5036833;28;20527;-71
2023/04/10 08:29:33;;;;;;;22.67;17.38;;;;;;;;;;5072059;28;20074;-72
2023/04/10 08:31:59;;;;;;;22.60;17.58;;;;;;;;;;5074997;28;20040;-72
2023/04/10 08:34:26;;;;;;;25.63;18.90;;;;;;;;;;5072334;28;20040;-72
2023/04/10 08:36:52;;;;;;;;;;;;;;;;;;5065114;28;20076;-73
2023/04/10 08:39:18;;;;;;;24.17;17.70;;;;;;;;;;5067394;28;19959;-73
2023/04/10 08:41:44;;;;;;;23.10;17.48;;;;;;;;;;5105238;28;20102;-72
2023/04/10 08:44:11;;;;;;;24.98;18.83;;;;;;;;;;5070336;28;20460;-72
2023/04/10 08:46:40;;;;;;;25.15;19.52;;;;;;;;;;5069431;28;20080;-73
2023/04/10 08:49:09;;;;;;;23.85;17.95;;;;;;;;;;5073220;28;20036;-73
2023/04/10 08:51:37;;;;;;;26.48;19.88;;;;;;;;;;5071984;28;20387;-73
2023/04/10 08:54:05;;;;;;;23.52;19.10;;;;;;;;;;5071070;28;20032;-73
2023/04/10 08:56:32;;;;;;;26.40;19.45;;;;;;;;;;5075795;28;20072;-73
2023/04/10 08:59:01;;;;;;;26.80;19.67;;;;;;;;;;5070077;28;20036;-73
2023/04/10 09:01:27;;;;;;;24.40;18.42;;;;;;;;;;5070207;28;20051;-73
2023/04/10 09:03:53;;;;;;;;;;;;;;;;;;5071952;28;20468;-73
2023/04/10 09:06:19;;;;;;;28.80;20.50;;;;;;;;;;5087208;28;19986;-73
2023/04/10 09:08:45;;;;;;;;;;;;;;;;;;5072485;28;20514;-73
2023/04/10 09:11:12;;;;;;;24.95;19.23;;;;;;;;;;5068951;28;19917;-73
2023/04/10 09:13:39;;;;;;;25.10;18.92;;;;;;;;;;5053553;28;20055;-72
2023/04/10 09:16:06;;;;;;;21.90;17.45;;;;;;;;;;5070874;28;20036;-73
2023/04/10 09:18:42;;;;;;;23.73;18.73;;;;;;;;;;5068867;28;20045;-73
2023/04/10 09:21:10;;;;;;;23.63;18.08;;;;;;;;;;5054686;28;20048;-73
2023/04/10 09:23:36;;;;;;;22.00;17.83;;;;;;;;;;5070873;28;20138;-73
2023/04/10 09:26:02;;;;;;;;;;;;;;;;;;5070566;28;20071;-73
2023/04/10 09:28:28;;;;;;;21.23;16.45;;;;;;;;;;5103731;28;20448;-73
2023/04/10 09:30:54;;;;;;;;;;;;;;;;;;5070684;28;20071;-73
2023/04/10 09:33:20;;;;;;;21.70;17.17;;;;;;;;;;5067744;28;19920;-73
2023/04/10 09:35:46;;;;;;;19.33;15.32;;;;;;;;;;5071232;28;20534;-73
2023/04/10 09:38:14;;;;;;;20.38;15.82;;;;;;;;;;5068920;28;20061;-73
2023/04/10 09:40:40;;;;;;;19.75;15.02;;;;;;;;;;5070902;28;20052;-73
2023/04/10 09:43:19;;;;;;;19.13;14.70;;;;;;;;;;5070937;28;20048;-73
2023/04/10 09:45:49;;;;;;;16.65;14.00;;;;;;;;;;5070510;28;20039;-73
2023/04/10 09:48:16;;;;;;;17.48;13.80;;;;;;;;;;5068427;28;20055;-73
2023/04/10 09:50:42;;;;;;;;;;;;;;;;;;5071033;28;20044;-73
2023/04/10 09:53:18;;;;;;;17.92;13.73;;;;;;;;;;5071514;28;20264;-73
2023/04/10 09:55:45;;;;;;;16.63;13.20;;;;;;;;;;5069159;28;20373;-73
2023/04/10 09:58:12;;;;;;;16.02;12.65;;;;;;;;;;5070447;28;20472;-73
2023/04/10 10:00:45;;;;;;;14.15;11.93;;;;;;;;;;5063117;28;20033;-73
2023/04/10 10:03:12;;;;;;;15.40;12.38;;;;;;;;;;5053509;28;20048;-71
2023/04/10 10:05:42;;;;;;;14.40;11.55;;;;;;;;;;5069914;28;20033;-73
2023/04/10 10:08:12;;;;;;;15.15;12.10;;;;;;;;;;5102404;28;20483;-72
2023/04/10 10:10:49;;;;;;;14.15;11.70;;;;;;;;;;5067081;28;20036;-73
2023/04/10 10:13:36;;;;;;;12.27;10.55;;;;;;;;;;5069687;28;20040;-73
2023/04/10 10:16:31;;;;;;;12.93;10.53;;;;;;;;;;5061164;28;20417;-74
2023/04/10 10:19:03;;;;;;;12.90;10.93;;;;;;;;;;5096773;28;20132;-72
2023/04/10 10:21:32;;;;;;;13.50;10.98;;;;;;;;;;5070512;28;20044;-72
2023/04/10 10:23:59;;;;;;;11.63;9.38;;;;;;;;;;5072389;28;20045;-72
2023/04/10 10:26:25;;;;;;;11.43;9.35;;;;;;;;;;5051734;28;20093;-72
2023/04/10 10:28:54;;;;;;;;;;;;;;;;;;5071099;28;20041;-72
2023/04/10 10:31:22;;;;;;;10.07;8.52;;;;;;;;;;5067819;28;20042;-72
2023/04/10 10:33:50;;;;;;;10.77;8.52;;;;;;;;;;5062345;28;20128;-73
2023/04/10 10:36:17;;;;;;;10.50;8.40;;;;;;;;;;5064517;28;20056;-73
2023/04/10 10:38:58;;;;;;;9.48;8.25;;;;;;;;;;5080959;28;20044;-73
2023/04/10 10:41:28;;;;;;;11.73;9.30;;;;;;;;;;5100962;28;20041;-73
2023/04/10 10:44:21;;;;;;;10.88;8.68;;;;;;;;;;5053904;28;20081;-73
2023/04/10 10:47:08;;;;;;;8.88;7.47;;;;;;;;;;5068031;28;20087;-73
2023/04/10 10:49:54;;;;;;;9.50;7.60;;;;;;;;;;5068100;28;20483;-73
2023/04/10 10:52:39;;;;;;;8.75;7.65;;;;;;;;;;5033022;28;20561;-73
2023/04/10 10:55:23;;;;;;;9.93;8.38;;;;;;;;;;5064908;28;20045;-73
2023/04/10 10:57:53;;;;;;;9.48;7.40;;;;;;;;;;5068296;28;20419;-73
2023/04/10 11:00:20;;;;;;;9.30;7.68;;;;;;;;;;5066457;28;20404;-73
2023/04/10 11:03:06;;;;;;;10.75;7.38;;;;;;;;;;5068562;28;20036;-73
2023/04/10 11:05:51;;;;;;;9.60;7.32;;;;;;;;;;5074949;28;20431;-73
2023/04/10 11:08:17;;;;;;;8.50;7.60;;;;;;;;;;5067915;28;20051;-73
2023/04/10 11:11:02;;;;;;;8.40;7.20;;;;;;;;;;5064141;28;20158;-73
2023/04/10 11:13:28;;;;;;;13.23;7.35;;;;;;;;;;5069072;28;20052;-73
2023/04/10 11:15:54;;;;;;;;;;;;;;;;;;5067841;28;20385;-73
2023/04/10 11:18:40;;;;;;;6.45;5.43;;;;;;;;;;5063933;28;19923;-73
2023/04/10 11:21:11;;;;;;;7.63;6.28;;;;;;;;;;5084080;28;20040;-73
2023/04/10 11:23:49;;;;;;;7.25;5.93;;;;;;;;;;5064979;28;20040;-73
2023/04/10 11:26:42;;;;;;;8.65;5.90;;;;;;;;;;5095332;28;20135;-72
2023/04/10 11:29:14;;;;;;;7.13;5.97;;;;;;;;;;5064151;28;20117;-73
2023/04/10 11:31:41;;;;;;;8.05;6.47;;;;;;;;;;5066029;28;20133;-73
2023/04/10 11:34:07;;;;;;;6.88;5.13;;;;;;;;;;5067618;28;20048;-74
2023/04/10 11:36:34;;;;;;;11.70;8.35;;;;;;;;;;5061896;28;20052;-72
2023/04/10 11:39:04;;;;;;;7.50;6.47;;;;;;;;;;5050738;28;20051;-73
2023/04/10 11:41:38;;;;;;;6.57;5.70;;;;;;;;;;5067229;28;20040;-74
2023/04/10 11:44:09;;;;;;;7.50;5.20;;;;;;;;;;5061982;28;20040;-74
2023/04/10 11:46:38;;;;;;;5.70;5.07;;;;;;;;;;5067314;28;20048;-74
2023/04/10 11:49:05;;;;;;;7.32;5.18;;;;;;;;;;5065432;28;20041;-74
2023/04/10 11:51:31;;;;;;;5.97;4.97;;;;;;;;;;5051400;28;20484;-74
2023/04/10 11:54:05;;;;;;;5.38;4.78;;;;;;;;;;5056690;28;20361;-73
2023/04/10 11:56:31;;;;;;;4.50;3.92;;;;;;;;;;5070130;28;20044;-73
2023/04/10 11:58:57;;;;;;;5.53;4.68;;;;;;;;;;5053284;28;20064;-73
2023/04/10 12:01:24;;;;;;;5.68;4.75;;;;;;;;;;5053848;28;20041;-74
2023/04/10 12:03:50;;;;;;;5.55;4.80;;;;;;;;;;5104772;27;20043;-73
2023/04/10 12:06:18;;;;;;;5.70;4.50;;;;;;;;;;5065369;28;20144;-74
2023/04/10 12:08:46;;;;;;;5.05;4.35;;;;;;;;;;5105919;28;20052;-73
2023/04/10 12:11:13;;;;;;;4.80;3.90;;;;;;;;;;5074409;28;20040;-74
2023/04/10 12:13:39;;;;;;;4.97;4.30;;;;;;;;;;5053452;28;20048;-73
2023/04/10 12:16:07;;;;;;;5.30;4.00;;;;;;;;;;5071638;28;20040;-73
2023/04/10 12:18:33;;;;;;;5.53;4.18;;;;;;;;;;5097246;28;20073;-73
2023/04/10 12:20:59;;;;;;;5.00;4.05;;;;;;;;;;5072321;28;20096;-73
2023/04/10 12:23:26;;;;;;;4.88;3.70;;;;;;;;;;5069479;28;20037;-72
2023/04/10 12:25:53;;;;;;;4.22;3.30;;;;;;;;;;5071844;28;20116;-72
2023/04/10 12:28:20;;;;;;;4.57;3.60;;;;;;;;;;5068529;28;20142;-74
2023/04/10 12:30:52;;;;;;;4.20;3.42;;;;;;;;;;5072384;28;20037;-73
2023/04/10 12:33:24;;;;;;;5.07;3.15;;;;;;;;;;5072266;28;20037;-75
2023/04/10 12:35:51;;;;;;;4.32;3.50;;;;;;;;;;5067863;28;20496;-74
2023/04/10 12:38:36;;;;;;;5.78;3.67;;;;;;;;;;5069708;28;20091;-73
2023/04/10 12:41:03;;;;;;;4.30;3.70;;;;;;;;;;5070460;28;20052;-73
2023/04/10 12:43:35;;;;;;;4.53;3.60;;;;;;;;;;5069989;28;20075;-73
2023/04/10 12:46:01;;;;;;;4.43;3.28;;;;;;;;;;5070715;28;20080;-73
2023/04/10 12:48:28;;;;;;;4.25;3.50;;;;;;;;;;5067618;28;20040;-75
2023/04/10 12:50:54;;;;;;;4.53;3.38;;;;;;;;;;5068896;28;20079;-74
2023/04/10 12:53:20;;;;;;;4.57;3.25;;;;;;;;;;5071871;28;20123;-73
2023/04/10 12:55:46;;;;;;;;;;;;;;;;;;5106271;28;20051;-73
2023/04/10 12:58:16;;;;;;;5.47;3.90;;;;;;;;;;5071676;28;19924;-73
2023/04/10 13:00:43;;;;;;;4.85;3.83;;;;;;;;;;5071611;28;20138;-73
2023/04/10 13:03:09;;;;;;;;;;;;;;;;;;5072294;28;20502;-74
2023/04/10 13:05:35;;;;;;;4.18;3.35;;;;;;;;;;5068626;28;19991;-73
2023/04/10 13:08:01;;;;;;;;;;;;;;;;;;5071359;28;20098;-74
2023/04/10 13:10:27;;;;;;;4.75;3.15;;;;;;;;;;5055706;28;19978;-73
2023/04/10 13:12:53;;;;;;;3.90;3.30;;;;;;;;;;5049569;28;20514;-74
2023/04/10 13:15:19;;;;;;;;;;;;;;;;;;5071054;28;20040;-73
2023/04/10 13:17:45;;;;;;;5.43;3.75;;;;;;;;;;5066200;28;19924;-73
2023/04/10 13:20:12;;;;;;;4.90;3.75;;;;;;;;;;5071387;28;20056;-74
2023/04/10 13:22:38;;;;;;;4.10;3.22;;;;;;;;;;5070372;28;20044;-74
2023/04/10 13:25:04;;;;;;;;;;;;;;;;;;5071478;28;20044;-74
2023/04/10 13:27:30;;;;;;;4.63;3.78;;;;;;;;;;5071385;28;19920;-73
2023/04/10 13:29:56;;;;;;;5.03;4.07;;;;;;;;;;5067164;28;20474;-74
2023/04/10 13:32:22;;;;;;;4.53;3.53;;;;;;;;;;5071707;28;20131;-73
2023/04/10 13:34:48;;;;;;;5.10;3.83;;;;;;;;;;5066107;28;20090;-74
2023/04/10 13:37:14;;;;;;;3.97;3.30;;;;;;;;;;5103575;28;20055;-73
2023/04/10 13:39:42;;;;;;;5.03;3.83;;;;;;;;;;5053434;28;20060;-73
2023/04/10 13:42:08;;;;;;;5.45;3.97;;;;;;;;;;5066002;28;20036;-75
2023/04/10 13:44:34;;;;;;;4.60;3.53;;;;;;;;;;5069936;28;20044;-75
2023/04/10 13:47:00;;;;;;;;;;;;;;;;;;5051879;28;20041;-74
2023/04/10 13:49:29;;;;;;;4.35;3.55;;;;;;;;;;5064940;28;19950;-75
2023/04/10 13:51:56;;;;;;;4.35;3.53;;;;;;;;;;5084957;28;20072;-74
2023/04/10 13:54:22;;;;;;;5.43;3.85;;;;;;;;;;5068129;28;20059;-72
2023/04/10 13:56:49;;;;;;;6.55;3.85;;;;;;;;;;5066681;28;20451;-72
2023/04/10 13:59:15;;;;;;;4.30;3.75;;;;;;;;;;5048663;28;20040;-76
2023/04/10 14:01:41;;;;;;;;;;;;;;;;;;5069503;28;20067;-74
2023/04/10 14:04:07;;;;;;;4.93;3.78;;;;;;;;;;5066647;28;20376;-74
2023/04/10 14:06:33;;;;;;;5.30;4.20;;;;;;;;;;5071187;28;20190;-74
2023/04/10 14:08:59;;;;;;;;;;;;;;;;;;5068932;28;20560;-74
2023/04/10 14:11:25;;;;;;;4.82;4.05;;;;;;;;;;5071000;28;20011;-74
2023/04/10 14:13:51;;;;;;;4.70;3.53;;;;;;;;;;5068942;28;20048;-74
2023/04/10 14:16:18;;;;;;;4.57;3.63;;;;;;;;;;5052545;28;20044;-74
2023/04/10 14:18:44;;;;;;;;;;;;;;;;;;5069205;28;20472;-74
2023/04/10 14:21:10;;;;;;;4.32;3.60;;;;;;;;;;5065923;28;20000;-74
2023/04/10 14:23:36;;;;;;;;;;;;;;;;;;5068918;28;20109;-74
2023/04/10 14:26:02;;;;;;;4.47;3.42;;;;;;;;;;5070125;28;20303;-74
2023/04/10 14:28:28;;;;;;;4.18;3.67;;;;;;;;;;5076863;28;20044;-74
2023/04/10 14:30:54;;;;;;;3.60;3.30;;;;;;;;;;5065661;28;20078;-75
2023/04/10 14:33:20;;;;;;;4.15;3.10;;;;;;;;;;5064648;28;20032;-75
2023/04/10 14:35:47;;;;;;;4.00;3.45;;;;;;;;;;5064455;28;20488;-75